Warrenton, VA

4:49 PM EST on November 20, 2017 (GMT -0500)
Warrenton

Weather History for KHWY - May, 2013

Change the Weather History Date:

Wednesday, May 1, 2013

  Actual Average (KHEF) Record (KHEF)
Temperature  
Mean Temperature 60 °F -  
Max Temperature 72 °F 69 °F 82 °F (2001)
Min Temperature 48 °F 45 °F 35 °F (2006)
Degree Days  
Heating Degree Days 4    
Growing Degree Days 10 (Base 50)    
Moisture  
Dew Point 50 °F    
Average Humidity 69    
Maximum Humidity 99    
Minimum Humidity 38    
Precipitation  
Precipitation 0.01 in - - ()
Sea Level Pressure  
Sea Level Pressure 30.35 in    
Wind  
Wind Speed 4 mph (ENE)    
Max Wind Speed 14 mph    
Max Gust Speed 18 mph    
Visibility 10 miles    
Events      
Averages and records for this station are not official NWS values.
T = Trace of Precipitation, MM = Missing Value Source: NWS Daily Summary

Daily Weather History Graph

Daily Weather History Graph

Search for Another Location

Airport or City:

Trip Planner

Search our weather history database for the weather conditions in past years. The results will help you decide how hot, cold, wet, or windy it might be!

Date:

Astronomy

May. 01, 2013 Rise Set
Actual Time 6:13 AM EDT 8:03 PM EDT
Civil Twilight 5:44 AM EDT 8:31 PM EDT
Nautical Twilight 5:10 AM EDT 9:06 PM EDT
Astronomical Twilight 4:32 AM EDT 9:43 PM EDT
Moon 1:10 AM EDT (5/1) 11:49 AM EDT (5/1)
Length of Visible Light 14h 47m
Length of Day
13h 49m
Waning Gibbous, 59% of the Moon is Illuminated
May 1
Waning Gibbous
May 2
Last Quarter
May 9
New
May 18
First Quarter
May 25
Full

Hourly Weather History & Observations

Time (EDT) Temp. Dew Point Humidity Pressure Visibility Wind Dir Wind Speed Gust Speed Precip Events Conditions
12:15 AM 56.3 °F 55.9 °F 99% 30.28 in 10.0 mi Calm Calm - N/A   Overcast
12:35 AM 56.3 °F 55.9 °F 99% 30.29 in 10.0 mi Calm Calm - N/A   Overcast
12:55 AM 55.9 °F 55.8 °F 99% 30.29 in 10.0 mi Calm Calm - N/A   Overcast
1:15 AM 55.9 °F 55.4 °F 98% 30.29 in 10.0 mi Calm Calm - N/A   Overcast
1:35 AM 56.1 °F 55.4 °F 97% 30.28 in 10.0 mi Calm Calm - N/A   Overcast
1:55 AM 56.3 °F 55.0 °F 96% 30.28 in 10.0 mi Calm Calm - N/A   Overcast
2:15 AM 55.8 °F 54.9 °F 97% 30.28 in 10.0 mi NNE 3.5 mph - N/A   Overcast
2:35 AM 55.6 °F 55.0 °F 98% 30.28 in 10.0 mi North 3.5 mph - N/A   Overcast
3:15 AM 55.8 °F 54.7 °F 96% 30.28 in 10.0 mi NNE 3.5 mph - N/A   Overcast
3:35 AM 55.8 °F 54.9 °F 97% 30.29 in 10.0 mi Calm Calm - N/A   Overcast
3:55 AM 55.8 °F 54.9 °F 97% 30.29 in 10.0 mi NNE 3.5 mph - N/A   Overcast
4:15 AM 55.6 °F 54.5 °F 96% 30.30 in 10.0 mi NE 4.6 mph - N/A   Overcast
4:35 AM 55.4 °F 53.8 °F 94% 30.30 in 10.0 mi NE 4.6 mph - N/A   Overcast
5:15 AM 54.7 °F 52.5 °F 92% 30.30 in 10.0 mi NNE 4.6 mph - N/A   Overcast
5:35 AM 54.5 °F 52.0 °F 91% 30.30 in 10.0 mi NE 4.6 mph - N/A   Overcast
5:55 AM 53.6 °F 51.1 °F 91% 30.30 in 10.0 mi NE 4.6 mph - N/A   Overcast
6:15 AM 52.2 °F 50.4 °F 94% 30.31 in 10.0 mi NNE 4.6 mph - N/A   Scattered Clouds
6:35 AM 50.9 °F 49.5 °F 95% 30.32 in 10.0 mi North 4.6 mph - N/A   Clear
6:55 AM 52.2 °F 49.8 °F 92% 30.33 in 10.0 mi NNE 4.6 mph - N/A   Scattered Clouds
7:15 AM 53.4 °F 49.5 °F 86% 30.34 in 10.0 mi NNE 5.8 mph - N/A   Overcast
7:35 AM 54.1 °F 49.1 °F 83% 30.34 in 10.0 mi NNE 8.1 mph - N/A   Scattered Clouds
7:55 AM 54.9 °F 49.6 °F 83% 30.35 in 10.0 mi NE 8.1 mph - N/A   Clear
8:15 AM 55.4 °F 49.6 °F 81% 30.36 in 10.0 mi NNE 9.2 mph - N/A   Clear
8:35 AM 56.7 °F 50.2 °F 79% 30.36 in 10.0 mi NE 8.1 mph - N/A   Clear
9:15 AM 59.0 °F 51.3 °F 75% 30.37 in 10.0 mi NNE 8.1 mph - N/A   Clear
9:35 AM 60.1 °F 51.6 °F 74% 30.37 in 10.0 mi ENE 6.9 mph - N/A   Clear
9:55 AM 60.8 °F 52.2 °F 73% 30.37 in 10.0 mi NNE 5.8 mph - N/A   Clear
10:15 AM 62.2 °F 52.3 °F 70% 30.38 in 10.0 mi NNE 8.1 mph - N/A   Clear
10:35 AM 63.7 °F 52.5 °F 67% 30.38 in 10.0 mi NNE 10.4 mph - N/A   Clear
10:55 AM 64.4 °F 51.4 °F 63% 30.38 in 10.0 mi ENE 8.1 mph - N/A   Clear
11:15 AM 65.7 °F 52.3 °F 62% 30.38 in 10.0 mi NNE 6.9 mph - N/A   Clear
11:35 AM 65.7 °F 49.3 °F 55% 30.38 in 10.0 mi North 4.6 mph - N/A   Clear
11:55 AM 67.1 °F 50.0 °F 54% 30.37 in 10.0 mi East 8.1 mph - N/A   Clear
12:15 PM 67.6 °F 47.3 °F 48% 30.37 in 10.0 mi NNE 10.4 mph - N/A   Clear
12:35 PM 68.4 °F 47.3 °F 47% 30.37 in 10.0 mi ENE 8.1 mph - N/A   Clear
12:55 PM 69.4 °F 49.3 °F 49% 30.36 in 10.0 mi ENE 10.4 mph - N/A   Clear
1:15 PM 69.4 °F 49.3 °F 49% 30.36 in 10.0 mi Calm Calm - N/A   Clear
1:35 PM 70.2 °F 48.7 °F 46% 30.36 in 10.0 mi East 5.8 mph - N/A   Clear
1:55 PM 70.2 °F 47.5 °F 44% 30.35 in 10.0 mi East 6.9 mph 16.1 mph N/A   Clear
2:15 PM 71.1 °F 46.2 °F 41% 30.35 in 10.0 mi NE 8.1 mph - N/A   Clear
2:35 PM 71.8 °F 46.4 °F 40% 30.35 in 10.0 mi NNE 8.1 mph 16.1 mph N/A   Clear
2:55 PM 71.8 °F 45.1 °F 38% 30.35 in 10.0 mi ENE 13.8 mph 18.4 mph N/A   Clear
3:15 PM 71.4 °F 44.6 °F 38% 30.35 in 10.0 mi NE 5.8 mph 16.1 mph N/A   Clear
3:35 PM 71.8 °F 46.6 °F 41% 30.34 in 10.0 mi NE 8.1 mph 16.1 mph N/A   Clear
3:55 PM 72.0 °F 46.9 °F 41% 30.34 in 10.0 mi NE 4.6 mph - N/A   Clear
4:15 PM 71.8 °F 47.8 °F 43% 30.35 in 10.0 mi ENE 9.2 mph 17.3 mph N/A   Clear
4:35 PM 71.8 °F 46.8 °F 41% 30.35 in 10.0 mi East 9.2 mph - N/A   Clear
5:15 PM 71.8 °F 47.8 °F 43% 30.36 in 10.0 mi East 8.1 mph - N/A   Clear
5:35 PM 71.6 °F 47.8 °F 43% 30.36 in 10.0 mi East 9.2 mph - N/A   Clear
5:55 PM 71.2 °F 47.8 °F 43% 30.36 in 10.0 mi ESE 8.1 mph - N/A   Clear
6:15 PM 70.7 °F 47.8 °F 44% 30.36 in 10.0 mi East 6.9 mph - N/A   Clear
6:35 PM 69.8 °F 48.0 °F 46% 30.36 in 10.0 mi East 8.1 mph - N/A   Clear
6:55 PM 68.9 °F 48.2 °F 48% 30.36 in 10.0 mi East 8.1 mph - N/A   Clear
7:15 PM 67.5 °F 47.8 °F 49% 30.36 in 10.0 mi East 6.9 mph - N/A   Clear
7:35 PM 66.2 °F 46.9 °F 50% 30.36 in 10.0 mi East 6.9 mph - N/A   Clear
7:55 PM 63.9 °F 46.4 °F 53% 30.36 in 10.0 mi East 5.8 mph - N/A   Clear
8:15 PM 61.5 °F 45.9 °F 56% 30.36 in 10.0 mi East 5.8 mph - N/A   Clear
8:35 PM 59.9 °F 45.3 °F 59% 30.37 in 10.0 mi East 5.8 mph - N/A   Clear
8:55 PM 59.9 °F 44.6 °F 57% 30.37 in 10.0 mi East 4.6 mph - N/A   Clear
9:15 PM 55.8 °F 46.6 °F 71% 30.39 in 10.0 mi South 3.5 mph - N/A   Clear
9:35 PM 53.2 °F 46.6 °F 78% 30.39 in 10.0 mi Calm Calm - N/A   Clear
9:55 PM 55.0 °F 45.9 °F 71% 30.40 in 10.0 mi East 8.1 mph - N/A   Clear
10:15 PM 55.9 °F 46.8 °F 71% 30.41 in 10.0 mi East 5.8 mph - N/A   Clear
10:35 PM 52.9 °F 46.4 °F 79% 30.41 in 10.0 mi ESE 3.5 mph - N/A   Clear
10:55 PM 52.5 °F 46.6 °F 80% 30.41 in 10.0 mi Calm Calm - N/A   Clear
11:35 PM 49.1 °F 46.8 °F 92% 30.42 in 10.0 mi Calm Calm - N/A   Clear
11:55 PM 48.2 °F 46.6 °F 94% 30.42 in 10.0 mi NE 3.5 mph - N/A   Clear